sensor_id;sensor_type;location;lat;lon;timestamp;P1;durP1;ratioP1;P2;durP2;ratioP2
11829;SDS011;5972;42.134;24.718;2022-09-12T00:01:09;5.95;;;3.78;;
11829;SDS011;5972;42.134;24.718;2022-09-12T00:03:38;4.03;;;3.60;;
11829;SDS011;5972;42.134;24.718;2022-09-12T00:06:09;4.30;;;3.47;;
11829;SDS011;5972;42.134;24.718;2022-09-12T00:08:38;4.93;;;3.65;;
11829;SDS011;5972;42.134;24.718;2022-09-12T00:11:06;4.15;;;3.85;;
11829;SDS011;5972;42.134;24.718;2022-09-12T00:13:35;3.90;;;3.60;;
11829;SDS011;5972;42.134;24.718;2022-09-12T00:16:03;4.35;;;3.63;;
11829;SDS011;5972;42.134;24.718;2022-09-12T00:18:31;4.03;;;3.65;;
11829;SDS011;5972;42.134;24.718;2022-09-12T00:21:00;3.92;;;3.63;;
11829;SDS011;5972;42.134;24.718;2022-09-12T00:23:29;5.35;;;4.10;;
11829;SDS011;5972;42.134;24.718;2022-09-12T00:25:56;5.13;;;4.03;;
11829;SDS011;5972;42.134;24.718;2022-09-12T00:28:23;4.38;;;4.07;;
11829;SDS011;5972;42.134;24.718;2022-09-12T00:30:53;3.97;;;3.67;;
11829;SDS011;5972;42.134;24.718;2022-09-12T00:33:20;5.75;;;3.95;;
11829;SDS011;5972;42.134;24.718;2022-09-12T00:35:47;8.30;;;4.15;;
11829;SDS011;5972;42.134;24.718;2022-09-12T00:38:17;4.80;;;4.35;;
11829;SDS011;5972;42.134;24.718;2022-09-12T00:40:45;5.60;;;4.22;;
11829;SDS011;5972;42.134;24.718;2022-09-12T00:43:13;4.25;;;3.95;;
11829;SDS011;5972;42.134;24.718;2022-09-12T00:46:00;9.65;;;4.10;;
11829;SDS011;5972;42.134;24.718;2022-09-12T00:48:32;5.57;;;4.10;;
11829;SDS011;5972;42.134;24.718;2022-09-12T00:51:06;4.25;;;3.75;;
11829;SDS011;5972;42.134;24.718;2022-09-12T00:53:34;5.60;;;4.00;;
11829;SDS011;5972;42.134;24.718;2022-09-12T00:56:01;4.95;;;3.75;;
11829;SDS011;5972;42.134;24.718;2022-09-12T00:58:28;4.20;;;3.80;;
11829;SDS011;5972;42.134;24.718;2022-09-12T01:01:01;3.92;;;3.63;;
11829;SDS011;5972;42.134;24.718;2022-09-12T01:03:28;4.05;;;3.60;;
11829;SDS011;5972;42.134;24.718;2022-09-12T01:05:57;4.18;;;3.78;;
11829;SDS011;5972;42.134;24.718;2022-09-12T01:08:28;4.57;;;3.90;;
11829;SDS011;5972;42.134;24.718;2022-09-12T01:10:55;4.18;;;3.88;;
11829;SDS011;5972;42.134;24.718;2022-09-12T01:13:22;4.28;;;3.97;;
11829;SDS011;5972;42.134;24.718;2022-09-12T01:15:50;4.38;;;4.07;;
11829;SDS011;5972;42.134;24.718;2022-09-12T01:18:22;4.05;;;3.75;;
11829;SDS011;5972;42.134;24.718;2022-09-12T01:21:05;4.35;;;3.97;;
11829;SDS011;5972;42.134;24.718;2022-09-12T01:23:56;4.38;;;4.07;;
11829;SDS011;5972;42.134;24.718;2022-09-12T01:26:58;4.00;;;3.70;;
11829;SDS011;5972;42.134;24.718;2022-09-12T01:32:54;4.38;;;4.00;;
11829;SDS011;5972;42.134;24.718;2022-09-12T01:35:29;4.07;;;3.78;;
11829;SDS011;5972;42.134;24.718;2022-09-12T01:38:05;4.30;;;3.90;;
11829;SDS011;5972;42.134;24.718;2022-09-12T01:40:38;3.88;;;3.58;;
11829;SDS011;5972;42.134;24.718;2022-09-12T01:43:16;3.92;;;3.50;;
11829;SDS011;5972;42.134;24.718;2022-09-12T01:45:52;3.95;;;3.67;;
11829;SDS011;5972;42.134;24.718;2022-09-12T01:48:27;3.92;;;3.63;;
11829;SDS011;5972;42.134;24.718;2022-09-12T01:51:02;3.60;;;3.40;;
11829;SDS011;5972;42.134;24.718;2022-09-12T01:53:34;3.90;;;3.60;;
11829;SDS011;5972;42.134;24.718;2022-09-12T01:56:05;4.75;;;3.60;;
11829;SDS011;5972;42.134;24.718;2022-09-12T01:58:37;4.15;;;3.22;;
11829;SDS011;5972;42.134;24.718;2022-09-12T02:01:09;3.70;;;3.40;;
11829;SDS011;5972;42.134;24.718;2022-09-12T02:03:42;5.88;;;3.85;;
11829;SDS011;5972;42.134;24.718;2022-09-12T02:06:14;3.83;;;3.53;;
11829;SDS011;5972;42.134;24.718;2022-09-12T02:08:45;6.45;;;3.38;;
11829;SDS011;5972;42.134;24.718;2022-09-12T02:11:17;3.78;;;3.10;;
11829;SDS011;5972;42.134;24.718;2022-09-12T02:13:46;4.10;;;3.80;;
11829;SDS011;5972;42.134;24.718;2022-09-12T02:16:20;3.55;;;3.25;;
11829;SDS011;5972;42.134;24.718;2022-09-12T02:18:54;4.35;;;3.58;;
11829;SDS011;5972;42.134;24.718;2022-09-12T02:21:25;7.40;;;3.65;;
11829;SDS011;5972;42.134;24.718;2022-09-12T02:23:57;3.45;;;3.20;;
11829;SDS011;5972;42.134;24.718;2022-09-12T02:26:28;3.55;;;3.35;;
11829;SDS011;5972;42.134;24.718;2022-09-12T02:28:59;3.58;;;3.38;;
11829;SDS011;5972;42.134;24.718;2022-09-12T02:31:27;3.85;;;3.50;;
11829;SDS011;5972;42.134;24.718;2022-09-12T02:34:05;5.75;;;3.58;;
11829;SDS011;5972;42.134;24.718;2022-09-12T02:36:37;3.60;;;3.30;;
11829;SDS011;5972;42.134;24.718;2022-09-12T02:39:11;3.97;;;3.30;;
11829;SDS011;5972;42.134;24.718;2022-09-12T02:41:43;3.60;;;3.30;;
11829;SDS011;5972;42.134;24.718;2022-09-12T02:44:10;3.63;;;3.00;;
11829;SDS011;5972;42.134;24.718;2022-09-12T02:46:38;3.53;;;3.22;;
11829;SDS011;5972;42.134;24.718;2022-09-12T02:49:08;4.15;;;3.33;;
11829;SDS011;5972;42.134;24.718;2022-09-12T02:51:35;4.05;;;3.00;;
11829;SDS011;5972;42.134;24.718;2022-09-12T02:54:03;3.72;;;2.97;;
11829;SDS011;5972;42.134;24.718;2022-09-12T02:56:31;3.20;;;2.92;;
11829;SDS011;5972;42.134;24.718;2022-09-12T02:58:59;3.42;;;3.10;;
11829;SDS011;5972;42.134;24.718;2022-09-12T03:01:34;3.30;;;3.00;;
11829;SDS011;5972;42.134;24.718;2022-09-12T03:04:18;3.40;;;2.80;;
11829;SDS011;5972;42.134;24.718;2022-09-12T03:07:03;3.00;;;2.80;;
11829;SDS011;5972;42.134;24.718;2022-09-12T03:09:41;3.22;;;3.03;;
11829;SDS011;5972;42.134;24.718;2022-09-12T03:12:17;2.95;;;2.75;;
11829;SDS011;5972;42.134;24.718;2022-09-12T03:14:57;2.88;;;2.67;;
11829;SDS011;5972;42.134;24.718;2022-09-12T03:17:36;3.80;;;2.90;;
11829;SDS011;5972;42.134;24.718;2022-09-12T03:20:11;2.88;;;2.67;;
11829;SDS011;5972;42.134;24.718;2022-09-12T03:22:42;3.00;;;2.70;;
11829;SDS011;5972;42.134;24.718;2022-09-12T03:25:18;3.58;;;3.33;;
11829;SDS011;5972;42.134;24.718;2022-09-12T03:27:51;5.82;;;2.90;;
11829;SDS011;5972;42.134;24.718;2022-09-12T03:30:22;3.05;;;2.85;;
11829;SDS011;5972;42.134;24.718;2022-09-12T03:32:49;3.00;;;2.80;;
11829;SDS011;5972;42.134;24.718;2022-09-12T03:35:20;6.47;;;2.78;;
11829;SDS011;5972;42.134;24.718;2022-09-12T03:37:48;2.55;;;2.35;;
11829;SDS011;5972;42.134;24.718;2022-09-12T03:40:16;4.00;;;2.65;;
11829;SDS011;5972;42.134;24.718;2022-09-12T03:42:43;4.63;;;2.75;;
11829;SDS011;5972;42.134;24.718;2022-09-12T03:45:10;2.60;;;2.40;;
11829;SDS011;5972;42.134;24.718;2022-09-12T03:47:37;4.55;;;2.75;;
11829;SDS011;5972;42.134;24.718;2022-09-12T03:50:06;3.67;;;3.33;;
11829;SDS011;5972;42.134;24.718;2022-09-12T03:52:34;9.45;;;2.60;;
11829;SDS011;5972;42.134;24.718;2022-09-12T03:55:01;3.45;;;2.53;;
11829;SDS011;5972;42.134;24.718;2022-09-12T03:57:29;2.42;;;2.22;;
11829;SDS011;5972;42.134;24.718;2022-09-12T03:59:55;3.55;;;2.30;;
11829;SDS011;5972;42.134;24.718;2022-09-12T04:02:22;6.82;;;2.60;;
11829;SDS011;5972;42.134;24.718;2022-09-12T04:04:49;3.53;;;2.58;;
11829;SDS011;5972;42.134;24.718;2022-09-12T04:07:16;3.22;;;2.40;;
11829;SDS011;5972;42.134;24.718;2022-09-12T04:09:45;7.95;;;2.80;;
11829;SDS011;5972;42.134;24.718;2022-09-12T04:12:11;2.65;;;2.35;;
11829;SDS011;5972;42.134;24.718;2022-09-12T04:14:39;4.65;;;2.30;;
11829;SDS011;5972;42.134;24.718;2022-09-12T04:17:06;3.33;;;2.30;;
11829;SDS011;5972;42.134;24.718;2022-09-12T04:19:33;2.47;;;2.17;;
11829;SDS011;5972;42.134;24.718;2022-09-12T04:22:00;3.40;;;2.10;;
11829;SDS011;5972;42.134;24.718;2022-09-12T04:24:26;4.85;;;2.20;;
11829;SDS011;5972;42.134;24.718;2022-09-12T04:26:55;6.00;;;2.50;;
11829;SDS011;5972;42.134;24.718;2022-09-12T04:29:22;2.50;;;2.30;;
11829;SDS011;5972;42.134;24.718;2022-09-12T04:31:49;3.22;;;2.45;;
11829;SDS011;5972;42.134;24.718;2022-09-12T04:34:16;2.47;;;2.28;;
11829;SDS011;5972;42.134;24.718;2022-09-12T04:36:43;2.17;;;2.00;;
11829;SDS011;5972;42.134;24.718;2022-09-12T04:39:10;2.30;;;2.10;;
11829;SDS011;5972;42.134;24.718;2022-09-12T04:41:38;6.68;;;2.13;;
11829;SDS011;5972;42.134;24.718;2022-09-12T04:44:10;3.15;;;2.40;;
11829;SDS011;5972;42.134;24.718;2022-09-12T04:46:39;2.75;;;1.83;;
11829;SDS011;5972;42.134;24.718;2022-09-12T04:49:08;6.28;;;2.00;;
11829;SDS011;5972;42.134;24.718;2022-09-12T04:51:37;4.30;;;1.80;;
11829;SDS011;5972;42.134;24.718;2022-09-12T04:54:05;2.15;;;1.60;;
11829;SDS011;5972;42.134;24.718;2022-09-12T04:56:36;3.53;;;2.05;;
11829;SDS011;5972;42.134;24.718;2022-09-12T04:59:03;2.60;;;1.75;;
11829;SDS011;5972;42.134;24.718;2022-09-12T05:01:32;5.68;;;1.83;;
11829;SDS011;5972;42.134;24.718;2022-09-12T05:04:00;1.73;;;1.63;;
11829;SDS011;5972;42.134;24.718;2022-09-12T05:06:28;3.90;;;1.70;;
11829;SDS011;5972;42.134;24.718;2022-09-12T05:08:56;2.08;;;1.60;;
11829;SDS011;5972;42.134;24.718;2022-09-12T05:11:24;1.85;;;1.65;;
11829;SDS011;5972;42.134;24.718;2022-09-12T05:13:52;2.95;;;1.58;;
11829;SDS011;5972;42.134;24.718;2022-09-12T05:16:20;1.67;;;1.40;;
11829;SDS011;5972;42.134;24.718;2022-09-12T05:18:49;2.78;;;1.65;;
11829;SDS011;5972;42.134;24.718;2022-09-12T05:21:17;3.50;;;2.00;;
11829;SDS011;5972;42.134;24.718;2022-09-12T05:23:49;3.50;;;1.67;;
11829;SDS011;5972;42.134;24.718;2022-09-12T05:26:17;2.03;;;1.80;;
11829;SDS011;5972;42.134;24.718;2022-09-12T05:28:45;8.80;;;1.55;;
11829;SDS011;5972;42.134;24.718;2022-09-12T05:31:14;6.13;;;1.70;;
11829;SDS011;5972;42.134;24.718;2022-09-12T05:33:42;6.25;;;1.92;;
11829;SDS011;5972;42.134;24.718;2022-09-12T05:36:12;6.53;;;1.77;;
11829;SDS011;5972;42.134;24.718;2022-09-12T05:38:40;6.07;;;1.90;;
11829;SDS011;5972;42.134;24.718;2022-09-12T05:41:08;4.43;;;1.80;;
11829;SDS011;5972;42.134;24.718;2022-09-12T05:43:36;2.22;;;1.50;;
11829;SDS011;5972;42.134;24.718;2022-09-12T05:46:06;4.93;;;1.88;;
11829;SDS011;5972;42.134;24.718;2022-09-12T05:48:35;12.55;;;2.22;;
11829;SDS011;5972;42.134;24.718;2022-09-12T05:51:03;8.43;;;2.17;;
11829;SDS011;5972;42.134;24.718;2022-09-12T05:53:32;5.75;;;1.73;;
11829;SDS011;5972;42.134;24.718;2022-09-12T05:56:03;4.70;;;1.90;;
11829;SDS011;5972;42.134;24.718;2022-09-12T05:58:31;1.92;;;1.70;;
11829;SDS011;5972;42.134;24.718;2022-09-12T06:01:03;4.05;;;2.05;;
11829;SDS011;5972;42.134;24.718;2022-09-12T06:03:32;3.38;;;1.65;;
11829;SDS011;5972;42.134;24.718;2022-09-12T06:06:00;7.00;;;1.83;;
11829;SDS011;5972;42.134;24.718;2022-09-12T06:08:29;9.82;;;1.83;;
11829;SDS011;5972;42.134;24.718;2022-09-12T06:10:59;4.63;;;1.73;;
11829;SDS011;5972;42.134;24.718;2022-09-12T06:13:27;6.03;;;1.80;;
11829;SDS011;5972;42.134;24.718;2022-09-12T06:16:01;3.67;;;1.85;;
11829;SDS011;5972;42.134;24.718;2022-09-12T06:18:29;6.63;;;1.60;;
11829;SDS011;5972;42.134;24.718;2022-09-12T06:20:56;4.15;;;1.52;;
11829;SDS011;5972;42.134;24.718;2022-09-12T06:23:23;2.45;;;1.30;;
11829;SDS011;5972;42.134;24.718;2022-09-12T06:25:51;8.15;;;2.35;;
11829;SDS011;5972;42.134;24.718;2022-09-12T06:28:19;4.00;;;1.50;;
11829;SDS011;5972;42.134;24.718;2022-09-12T06:30:46;2.00;;;1.15;;
11829;SDS011;5972;42.134;24.718;2022-09-12T06:33:13;1.73;;;1.42;;
11829;SDS011;5972;42.134;24.718;2022-09-12T06:35:40;3.40;;;1.50;;
11829;SDS011;5972;42.134;24.718;2022-09-12T06:38:08;7.28;;;1.13;;
11829;SDS011;5972;42.134;24.718;2022-09-12T06:40:40;3.53;;;1.60;;
11829;SDS011;5972;42.134;24.718;2022-09-12T06:43:09;3.10;;;1.52;;
11829;SDS011;5972;42.134;24.718;2022-09-12T06:45:37;5.10;;;1.40;;
11829;SDS011;5972;42.134;24.718;2022-09-12T06:48:04;9.90;;;1.55;;
11829;SDS011;5972;42.134;24.718;2022-09-12T06:50:31;6.93;;;1.40;;
11829;SDS011;5972;42.134;24.718;2022-09-12T06:52:58;6.93;;;1.50;;
11829;SDS011;5972;42.134;24.718;2022-09-12T06:55:25;4.78;;;1.20;;
11829;SDS011;5972;42.134;24.718;2022-09-12T06:57:53;2.45;;;1.35;;
11829;SDS011;5972;42.134;24.718;2022-09-12T07:00:20;3.95;;;1.13;;
11829;SDS011;5972;42.134;24.718;2022-09-12T07:02:50;4.47;;;1.30;;
11829;SDS011;5972;42.134;24.718;2022-09-12T07:05:19;7.13;;;1.55;;
11829;SDS011;5972;42.134;24.718;2022-09-12T07:07:46;7.90;;;1.50;;
11829;SDS011;5972;42.134;24.718;2022-09-12T07:10:13;6.88;;;1.63;;
11829;SDS011;5972;42.134;24.718;2022-09-12T07:12:40;2.35;;;1.35;;
11829;SDS011;5972;42.134;24.718;2022-09-12T07:15:07;6.05;;;1.27;;
11829;SDS011;5972;42.134;24.718;2022-09-12T07:17:35;2.30;;;0.95;;
11829;SDS011;5972;42.134;24.718;2022-09-12T07:20:04;5.68;;;1.00;;
11829;SDS011;5972;42.134;24.718;2022-09-12T07:22:31;0.88;;;0.88;;
11829;SDS011;5972;42.134;24.718;2022-09-12T07:24:58;3.10;;;0.93;;
11829;SDS011;5972;42.134;24.718;2022-09-12T07:27:25;3.75;;;1.30;;
11829;SDS011;5972;42.134;24.718;2022-09-12T07:29:52;2.70;;;1.10;;
11829;SDS011;5972;42.134;24.718;2022-09-12T07:32:19;4.28;;;1.20;;
11829;SDS011;5972;42.134;24.718;2022-09-12T07:34:47;2.90;;;1.17;;
11829;SDS011;5972;42.134;24.718;2022-09-12T07:37:15;6.78;;;1.00;;
11829;SDS011;5972;42.134;24.718;2022-09-12T07:39:42;2.28;;;1.02;;
11829;SDS011;5972;42.134;24.718;2022-09-12T07:42:09;1.92;;;1.00;;
11829;SDS011;5972;42.134;24.718;2022-09-12T07:44:36;2.53;;;1.20;;
11829;SDS011;5972;42.134;24.718;2022-09-12T07:47:03;1.40;;;0.90;;
11829;SDS011;5972;42.134;24.718;2022-09-12T07:49:30;1.85;;;1.10;;
11829;SDS011;5972;42.134;24.718;2022-09-12T07:51:57;3.17;;;1.13;;
11829;SDS011;5972;42.134;24.718;2022-09-12T07:54:25;1.33;;;0.90;;
11829;SDS011;5972;42.134;24.718;2022-09-12T07:56:52;2.35;;;1.10;;
11829;SDS011;5972;42.134;24.718;2022-09-12T07:59:19;1.95;;;1.00;;
11829;SDS011;5972;42.134;24.718;2022-09-12T08:01:46;2.28;;;1.02;;
11829;SDS011;5972;42.134;24.718;2022-09-12T08:04:13;1.77;;;1.10;;
11829;SDS011;5972;42.134;24.718;2022-09-12T08:06:40;3.38;;;1.00;;
11829;SDS011;5972;42.134;24.718;2022-09-12T08:09:07;2.17;;;0.90;;
11829;SDS011;5972;42.134;24.718;2022-09-12T08:11:37;1.67;;;0.90;;
11829;SDS011;5972;42.134;24.718;2022-09-12T08:14:04;4.60;;;1.10;;
11829;SDS011;5972;42.134;24.718;2022-09-12T08:16:31;3.80;;;0.85;;
11829;SDS011;5972;42.134;24.718;2022-09-12T08:18:59;1.38;;;1.13;;
11829;SDS011;5972;42.134;24.718;2022-09-12T08:21:26;1.42;;;0.80;;
11829;SDS011;5972;42.134;24.718;2022-09-12T08:23:55;1.00;;;0.90;;
11829;SDS011;5972;42.134;24.718;2022-09-12T08:26:25;1.33;;;0.90;;
11829;SDS011;5972;42.134;24.718;2022-09-12T08:28:53;2.88;;;0.90;;
11829;SDS011;5972;42.134;24.718;2022-09-12T08:31:21;3.88;;;1.17;;
11829;SDS011;5972;42.134;24.718;2022-09-12T08:33:49;2.70;;;1.00;;
11829;SDS011;5972;42.134;24.718;2022-09-12T08:36:17;2.00;;;0.90;;
11829;SDS011;5972;42.134;24.718;2022-09-12T08:38:47;1.33;;;1.15;;
11829;SDS011;5972;42.134;24.718;2022-09-12T08:41:19;2.80;;;1.00;;
11829;SDS011;5972;42.134;24.718;2022-09-12T08:44:00;2.83;;;0.90;;
11829;SDS011;5972;42.134;24.718;2022-09-12T08:46:41;1.05;;;1.05;;
11829;SDS011;5972;42.134;24.718;2022-09-12T08:49:20;2.83;;;1.00;;
11829;SDS011;5972;42.134;24.718;2022-09-12T08:51:54;1.00;;;1.00;;
11829;SDS011;5972;42.134;24.718;2022-09-12T08:54:23;12.07;;;1.55;;
11829;SDS011;5972;42.134;24.718;2022-09-12T08:56:53;1.60;;;0.90;;
11829;SDS011;5972;42.134;24.718;2022-09-12T08:59:26;2.95;;;1.10;;
11829;SDS011;5972;42.134;24.718;2022-09-12T09:01:57;5.07;;;1.00;;
11829;SDS011;5972;42.134;24.718;2022-09-12T09:04:31;3.17;;;1.10;;
11829;SDS011;5972;42.134;24.718;2022-09-12T09:07:17;1.25;;;1.00;;
11829;SDS011;5972;42.134;24.718;2022-09-12T09:10:02;1.58;;;1.00;;
11829;SDS011;5972;42.134;24.718;2022-09-12T09:12:39;1.42;;;1.00;;
11829;SDS011;5972;42.134;24.718;2022-09-12T09:15:19;3.47;;;1.00;;
11829;SDS011;5972;42.134;24.718;2022-09-12T09:17:57;2.92;;;1.05;;
11829;SDS011;5972;42.134;24.718;2022-09-12T09:20:29;1.88;;;1.02;;
11829;SDS011;5972;42.134;24.718;2022-09-12T09:23:01;2.38;;;1.15;;
11829;SDS011;5972;42.134;24.718;2022-09-12T09:25:40;5.80;;;1.30;;
11829;SDS011;5972;42.134;24.718;2022-09-12T09:28:14;5.38;;;1.15;;
11829;SDS011;5972;42.134;24.718;2022-09-12T09:30:47;4.80;;;1.13;;
11829;SDS011;5972;42.134;24.718;2022-09-12T09:33:17;3.00;;;1.00;;
11829;SDS011;5972;42.134;24.718;2022-09-12T09:35:47;2.38;;;1.13;;
11829;SDS011;5972;42.134;24.718;2022-09-12T09:38:22;1.10;;;1.10;;
11829;SDS011;5972;42.134;24.718;2022-09-12T09:40:58;3.72;;;1.08;;
11829;SDS011;5972;42.134;24.718;2022-09-12T09:43:32;1.38;;;1.10;;
11829;SDS011;5972;42.134;24.718;2022-09-12T09:46:00;3.00;;;1.10;;
11829;SDS011;5972;42.134;24.718;2022-09-12T09:48:28;2.38;;;1.10;;
11829;SDS011;5972;42.134;24.718;2022-09-12T09:50:58;2.20;;;0.90;;
11829;SDS011;5972;42.134;24.718;2022-09-12T09:53:30;3.00;;;0.95;;
11829;SDS011;5972;42.134;24.718;2022-09-12T09:56:02;2.15;;;0.93;;
11829;SDS011;5972;42.134;24.718;2022-09-12T09:58:34;3.60;;;1.10;;
11829;SDS011;5972;42.134;24.718;2022-09-12T10:01:03;5.75;;;1.10;;
11829;SDS011;5972;42.134;24.718;2022-09-12T10:03:37;1.65;;;1.05;;
11829;SDS011;5972;42.134;24.718;2022-09-12T10:06:06;1.73;;;1.08;;
11829;SDS011;5972;42.134;24.718;2022-09-12T10:08:47;6.70;;;1.20;;
11829;SDS011;5972;42.134;24.718;2022-09-12T10:11:17;1.40;;;0.90;;
11829;SDS011;5972;42.134;24.718;2022-09-12T10:13:53;2.10;;;1.20;;
11829;SDS011;5972;42.134;24.718;2022-09-12T10:16:24;1.40;;;0.80;;
11829;SDS011;5972;42.134;24.718;2022-09-12T10:18:53;1.02;;;0.85;;
11829;SDS011;5972;42.134;24.718;2022-09-12T10:21:27;1.55;;;1.02;;
11829;SDS011;5972;42.134;24.718;2022-09-12T10:23:58;1.00;;;0.90;;
11829;SDS011;5972;42.134;24.718;2022-09-12T10:26:37;3.63;;;0.90;;
11829;SDS011;5972;42.134;24.718;2022-09-12T10:29:09;1.60;;;0.90;;
11829;SDS011;5972;42.134;24.718;2022-09-12T10:31:43;2.83;;;1.10;;
11829;SDS011;5972;42.134;24.718;2022-09-12T10:34:23;1.65;;;1.00;;
11829;SDS011;5972;42.134;24.718;2022-09-12T10:36:58;1.90;;;1.10;;
11829;SDS011;5972;42.134;24.718;2022-09-12T10:39:27;1.23;;;1.20;;
11829;SDS011;5972;42.134;24.718;2022-09-12T10:41:55;1.38;;;1.00;;
11829;SDS011;5972;42.134;24.718;2022-09-12T10:44:25;1.35;;;1.00;;
11829;SDS011;5972;42.134;24.718;2022-09-12T10:46:55;0.98;;;0.90;;
11829;SDS011;5972;42.134;24.718;2022-09-12T10:49:26;6.03;;;1.08;;
11829;SDS011;5972;42.134;24.718;2022-09-12T10:51:56;10.88;;;1.27;;
11829;SDS011;5972;42.134;24.718;2022-09-12T10:54:41;2.67;;;1.00;;
11829;SDS011;5972;42.134;24.718;2022-09-12T10:57:22;1.00;;;0.90;;
11829;SDS011;5972;42.134;24.718;2022-09-12T11:00:09;3.90;;;1.10;;
11829;SDS011;5972;42.134;24.718;2022-09-12T11:02:55;1.33;;;1.10;;
11829;SDS011;5972;42.134;24.718;2022-09-12T11:05:34;2.10;;;1.10;;
11829;SDS011;5972;42.134;24.718;2022-09-12T11:08:16;2.45;;;0.90;;
11829;SDS011;5972;42.134;24.718;2022-09-12T11:11:01;5.45;;;1.13;;
11829;SDS011;5972;42.134;24.718;2022-09-12T11:13:43;1.20;;;1.10;;
11829;SDS011;5972;42.134;24.718;2022-09-12T11:16:26;1.13;;;1.00;;
11829;SDS011;5972;42.134;24.718;2022-09-12T11:19:14;1.83;;;1.10;;
11829;SDS011;5972;42.134;24.718;2022-09-12T11:21:59;2.78;;;0.90;;
11829;SDS011;5972;42.134;24.718;2022-09-12T11:24:41;2.65;;;0.98;;
11829;SDS011;5972;42.134;24.718;2022-09-12T11:27:34;1.17;;;1.05;;
11829;SDS011;5972;42.134;24.718;2022-09-12T11:30:12;3.95;;;1.27;;
11829;SDS011;5972;42.134;24.718;2022-09-12T11:32:54;1.40;;;1.30;;
11829;SDS011;5972;42.134;24.718;2022-09-12T11:35:39;1.88;;;1.10;;
11829;SDS011;5972;42.134;24.718;2022-09-12T11:41:14;1.10;;;1.00;;
11829;SDS011;5972;42.134;24.718;2022-09-12T11:43:46;0.93;;;0.93;;
11829;SDS011;5972;42.134;24.718;2022-09-12T11:46:17;2.72;;;1.35;;
11829;SDS011;5972;42.134;24.718;2022-09-12T11:48:50;4.70;;;1.17;;
11829;SDS011;5972;42.134;24.718;2022-09-12T11:51:24;1.63;;;1.20;;
11829;SDS011;5972;42.134;24.718;2022-09-12T11:53:58;1.15;;;1.05;;
11829;SDS011;5972;42.134;24.718;2022-09-12T11:56:30;2.38;;;1.55;;
11829;SDS011;5972;42.134;24.718;2022-09-12T11:58:58;1.40;;;1.30;;
11829;SDS011;5972;42.134;24.718;2022-09-12T12:01:31;0.95;;;0.93;;
11829;SDS011;5972;42.134;24.718;2022-09-12T12:04:05;1.05;;;1.00;;
11829;SDS011;5972;42.134;24.718;2022-09-12T12:06:42;1.20;;;1.10;;
11829;SDS011;5972;42.134;24.718;2022-09-12T12:09:14;1.13;;;1.10;;
11829;SDS011;5972;42.134;24.718;2022-09-12T12:11:43;4.95;;;1.30;;
11829;SDS011;5972;42.134;24.718;2022-09-12T12:14:16;2.45;;;1.40;;
11829;SDS011;5972;42.134;24.718;2022-09-12T12:16:46;1.13;;;1.10;;
11829;SDS011;5972;42.134;24.718;2022-09-12T12:19:32;1.08;;;1.08;;
11829;SDS011;5972;42.134;24.718;2022-09-12T12:22:06;1.30;;;1.20;;
11829;SDS011;5972;42.134;24.718;2022-09-12T12:24:52;1.27;;;1.10;;
11829;SDS011;5972;42.134;24.718;2022-09-12T12:42:10;1.40;;;1.30;;
11829;SDS011;5972;42.134;24.718;2022-09-12T12:51:46;2.08;;;1.15;;
11829;SDS011;5972;42.134;24.718;2022-09-12T12:57:27;3.92;;;1.10;;
11829;SDS011;5972;42.134;24.718;2022-09-12T12:59:59;2.30;;;1.30;;
11829;SDS011;5972;42.134;24.718;2022-09-12T13:02:29;3.17;;;1.40;;
11829;SDS011;5972;42.134;24.718;2022-09-12T13:04:59;2.78;;;1.30;;
11829;SDS011;5972;42.134;24.718;2022-09-12T13:07:29;2.90;;;1.50;;
11829;SDS011;5972;42.134;24.718;2022-09-12T13:09:59;3.03;;;1.50;;
11829;SDS011;5972;42.134;24.718;2022-09-12T13:12:29;1.73;;;1.63;;
11829;SDS011;5972;42.134;24.718;2022-09-12T13:14:59;1.75;;;1.40;;
11829;SDS011;5972;42.134;24.718;2022-09-12T13:17:28;1.70;;;1.60;;
11829;SDS011;5972;42.134;24.718;2022-09-12T13:20:06;1.95;;;1.77;;
11829;SDS011;5972;42.134;24.718;2022-09-12T13:22:43;2.45;;;1.50;;
11829;SDS011;5972;42.134;24.718;2022-09-12T13:25:19;2.28;;;1.60;;
11829;SDS011;5972;42.134;24.718;2022-09-12T13:28:00;9.80;;;1.92;;
11829;SDS011;5972;42.134;24.718;2022-09-12T13:30:32;5.43;;;2.05;;
11829;SDS011;5972;42.134;24.718;2022-09-12T13:35:52;3.45;;;1.80;;
11829;SDS011;5972;42.134;24.718;2022-09-12T13:38:36;3.63;;;2.05;;
11829;SDS011;5972;42.134;24.718;2022-09-12T13:41:16;2.20;;;2.10;;
11829;SDS011;5972;42.134;24.718;2022-09-12T13:43:55;2.90;;;1.98;;
11829;SDS011;5972;42.134;24.718;2022-09-12T13:46:25;6.18;;;2.53;;
11829;SDS011;5972;42.134;24.718;2022-09-12T13:48:55;7.45;;;2.20;;
11829;SDS011;5972;42.134;24.718;2022-09-12T13:51:24;2.85;;;2.30;;
11829;SDS011;5972;42.134;24.718;2022-09-12T13:53:52;5.07;;;2.42;;
11829;SDS011;5972;42.134;24.718;2022-09-12T13:56:22;3.30;;;2.60;;
11829;SDS011;5972;42.134;24.718;2022-09-12T13:58:50;3.00;;;2.60;;
11829;SDS011;5972;42.134;24.718;2022-09-12T14:01:21;3.00;;;2.80;;
11829;SDS011;5972;42.134;24.718;2022-09-12T14:03:50;5.45;;;2.83;;
11829;SDS011;5972;42.134;24.718;2022-09-12T14:06:36;3.33;;;3.10;;
11829;SDS011;5972;42.134;24.718;2022-09-12T14:09:13;2.95;;;2.63;;
11829;SDS011;5972;42.134;24.718;2022-09-12T14:11:41;6.57;;;3.13;;
11829;SDS011;5972;42.134;24.718;2022-09-12T14:14:16;4.55;;;2.88;;
11829;SDS011;5972;42.134;24.718;2022-09-12T14:16:48;3.22;;;2.92;;
11829;SDS011;5972;42.134;24.718;2022-09-12T14:19:15;2.90;;;2.70;;
11829;SDS011;5972;42.134;24.718;2022-09-12T14:21:43;4.80;;;3.15;;
11829;SDS011;5972;42.134;24.718;2022-09-12T14:24:11;3.58;;;3.30;;
11829;SDS011;5972;42.134;24.718;2022-09-12T14:26:39;3.17;;;2.97;;
11829;SDS011;5972;42.134;24.718;2022-09-12T14:29:11;4.30;;;3.20;;
11829;SDS011;5972;42.134;24.718;2022-09-12T14:31:41;3.30;;;3.10;;
11829;SDS011;5972;42.134;24.718;2022-09-12T14:34:11;3.47;;;2.92;;
11829;SDS011;5972;42.134;24.718;2022-09-12T14:36:41;3.80;;;3.50;;
11829;SDS011;5972;42.134;24.718;2022-09-12T14:39:17;3.25;;;3.05;;
11829;SDS011;5972;42.134;24.718;2022-09-12T14:41:47;5.28;;;3.20;;
11829;SDS011;5972;42.134;24.718;2022-09-12T14:44:16;6.13;;;3.30;;
11829;SDS011;5972;42.134;24.718;2022-09-12T14:46:46;4.00;;;3.22;;
11829;SDS011;5972;42.134;24.718;2022-09-12T14:49:16;3.58;;;3.30;;
11829;SDS011;5972;42.134;24.718;2022-09-12T14:51:51;4.97;;;3.53;;
11829;SDS011;5972;42.134;24.718;2022-09-12T14:54:36;3.55;;;3.35;;
11829;SDS011;5972;42.134;24.718;2022-09-12T14:57:16;5.63;;;3.80;;
11829;SDS011;5972;42.134;24.718;2022-09-12T15:00:04;3.55;;;3.25;;
11829;SDS011;5972;42.134;24.718;2022-09-12T15:02:36;5.38;;;3.47;;
11829;SDS011;5972;42.134;24.718;2022-09-12T15:05:24;3.90;;;3.58;;
11829;SDS011;5972;42.134;24.718;2022-09-12T15:07:53;5.40;;;3.78;;
11829;SDS011;5972;42.134;24.718;2022-09-12T15:10:24;4.00;;;3.60;;
11829;SDS011;5972;42.134;24.718;2022-09-12T15:13:14;3.90;;;3.60;;
11829;SDS011;5972;42.134;24.718;2022-09-12T15:15:44;5.22;;;3.38;;
11829;SDS011;5972;42.134;24.718;2022-09-12T15:18:12;4.45;;;3.22;;
11829;SDS011;5972;42.134;24.718;2022-09-12T15:20:42;3.83;;;3.42;;
11829;SDS011;5972;42.134;24.718;2022-09-12T15:23:13;4.22;;;3.42;;
11829;SDS011;5972;42.134;24.718;2022-09-12T15:25:45;3.58;;;3.10;;
11829;SDS011;5972;42.134;24.718;2022-09-12T15:28:14;3.70;;;3.40;;
11829;SDS011;5972;42.134;24.718;2022-09-12T15:30:45;3.90;;;3.35;;
11829;SDS011;5972;42.134;24.718;2022-09-12T15:33:13;3.33;;;3.13;;
11829;SDS011;5972;42.134;24.718;2022-09-12T15:35:42;3.63;;;3.42;;
11829;SDS011;5972;42.134;24.718;2022-09-12T15:38:09;3.50;;;3.20;;
11829;SDS011;5972;42.134;24.718;2022-09-12T15:40:36;3.97;;;3.22;;
11829;SDS011;5972;42.134;24.718;2022-09-12T15:43:04;7.05;;;3.30;;
11829;SDS011;5972;42.134;24.718;2022-09-12T15:45:31;3.97;;;3.22;;
11829;SDS011;5972;42.134;24.718;2022-09-12T15:47:59;3.50;;;3.30;;